sensor_id;sensor_type;location;lat;lon;timestamp;P1;durP1;ratioP1;P2;durP2;ratioP2
10191;SDS011;17580;50.850;4.504;2023-08-08T00:01:39;4.87;;;1.90;;
10191;SDS011;17580;50.850;4.504;2023-08-08T00:04:08;5.10;;;1.80;;
10191;SDS011;17580;50.850;4.504;2023-08-08T00:06:35;5.97;;;2.00;;
10191;SDS011;17580;50.850;4.504;2023-08-08T00:09:02;3.00;;;1.57;;
10191;SDS011;17580;50.850;4.504;2023-08-08T00:11:30;2.20;;;2.00;;
10191;SDS011;17580;50.850;4.504;2023-08-08T00:13:58;3.33;;;1.63;;
10191;SDS011;17580;50.850;4.504;2023-08-08T00:16:25;5.80;;;1.87;;
10191;SDS011;17580;50.850;4.504;2023-08-08T00:18:54;5.17;;;2.30;;
10191;SDS011;17580;50.850;4.504;2023-08-08T00:21:21;4.17;;;2.10;;
10191;SDS011;17580;50.850;4.504;2023-08-08T00:23:49;5.10;;;2.10;;
10191;SDS011;17580;50.850;4.504;2023-08-08T00:26:16;3.53;;;2.40;;
10191;SDS011;17580;50.850;4.504;2023-08-08T00:28:44;3.97;;;2.40;;
10191;SDS011;17580;50.850;4.504;2023-08-08T00:31:11;6.83;;;2.70;;
10191;SDS011;17580;50.850;4.504;2023-08-08T00:33:38;4.77;;;2.43;;
10191;SDS011;17580;50.850;4.504;2023-08-08T00:36:07;4.47;;;2.10;;
10191;SDS011;17580;50.850;4.504;2023-08-08T00:38:34;5.93;;;2.47;;
10191;SDS011;17580;50.850;4.504;2023-08-08T00:41:02;3.93;;;2.20;;
10191;SDS011;17580;50.850;4.504;2023-08-08T00:43:30;5.37;;;1.97;;
10191;SDS011;17580;50.850;4.504;2023-08-08T00:45:57;4.70;;;2.60;;
10191;SDS011;17580;50.850;4.504;2023-08-08T00:48:24;5.93;;;2.43;;
10191;SDS011;17580;50.850;4.504;2023-08-08T00:50:52;5.20;;;2.27;;
10191;SDS011;17580;50.850;4.504;2023-08-08T00:53:20;3.27;;;2.23;;
10191;SDS011;17580;50.850;4.504;2023-08-08T00:55:51;4.00;;;2.17;;
10191;SDS011;17580;50.850;4.504;2023-08-08T00:58:18;4.40;;;2.00;;
10191;SDS011;17580;50.850;4.504;2023-08-08T01:00:46;5.00;;;2.70;;
10191;SDS011;17580;50.850;4.504;2023-08-08T01:03:13;5.57;;;2.40;;
10191;SDS011;17580;50.850;4.504;2023-08-08T01:05:41;4.80;;;2.17;;
10191;SDS011;17580;50.850;4.504;2023-08-08T01:08:10;3.90;;;2.57;;
10191;SDS011;17580;50.850;4.504;2023-08-08T01:10:40;3.50;;;2.50;;
10191;SDS011;17580;50.850;4.504;2023-08-08T01:13:09;5.93;;;3.20;;
10191;SDS011;17580;50.850;4.504;2023-08-08T01:15:37;6.33;;;2.93;;
10191;SDS011;17580;50.850;4.504;2023-08-08T01:18:06;6.53;;;3.20;;
10191;SDS011;17580;50.850;4.504;2023-08-08T01:20:34;5.23;;;2.30;;
10191;SDS011;17580;50.850;4.504;2023-08-08T01:23:03;4.67;;;2.67;;
10191;SDS011;17580;50.850;4.504;2023-08-08T01:25:38;7.00;;;2.43;;
10191;SDS011;17580;50.850;4.504;2023-08-08T01:28:06;6.33;;;3.20;;
10191;SDS011;17580;50.850;4.504;2023-08-08T01:30:33;7.10;;;2.57;;
10191;SDS011;17580;50.850;4.504;2023-08-08T01:33:01;6.37;;;3.23;;
10191;SDS011;17580;50.850;4.504;2023-08-08T01:35:29;5.77;;;3.60;;
10191;SDS011;17580;50.850;4.504;2023-08-08T01:37:58;4.33;;;2.47;;
10191;SDS011;17580;50.850;4.504;2023-08-08T01:40:27;7.97;;;3.10;;
10191;SDS011;17580;50.850;4.504;2023-08-08T01:42:57;5.17;;;3.30;;
10191;SDS011;17580;50.850;4.504;2023-08-08T01:45:25;8.53;;;2.93;;
10191;SDS011;17580;50.850;4.504;2023-08-08T01:47:52;5.43;;;2.70;;
10191;SDS011;17580;50.850;4.504;2023-08-08T01:50:19;7.37;;;2.80;;
10191;SDS011;17580;50.850;4.504;2023-08-08T01:52:47;5.67;;;3.10;;
10191;SDS011;17580;50.850;4.504;2023-08-08T01:55:15;8.33;;;2.83;;
10191;SDS011;17580;50.850;4.504;2023-08-08T01:57:42;6.20;;;2.73;;
10191;SDS011;17580;50.850;4.504;2023-08-08T02:00:11;5.73;;;2.40;;
10191;SDS011;17580;50.850;4.504;2023-08-08T02:02:38;7.77;;;2.83;;
10191;SDS011;17580;50.850;4.504;2023-08-08T02:05:06;5.73;;;2.47;;
10191;SDS011;17580;50.850;4.504;2023-08-08T02:07:33;5.10;;;2.70;;
10191;SDS011;17580;50.850;4.504;2023-08-08T02:10:00;5.53;;;2.90;;
10191;SDS011;17580;50.850;4.504;2023-08-08T02:12:28;6.17;;;3.47;;
10191;SDS011;17580;50.850;4.504;2023-08-08T02:14:55;6.53;;;2.93;;
10191;SDS011;17580;50.850;4.504;2023-08-08T02:17:24;6.57;;;3.23;;
10191;SDS011;17580;50.850;4.504;2023-08-08T02:19:51;12.50;;;3.60;;
10191;SDS011;17580;50.850;4.504;2023-08-08T02:22:19;11.17;;;3.50;;
10191;SDS011;17580;50.850;4.504;2023-08-08T02:24:46;6.57;;;3.40;;
10191;SDS011;17580;50.850;4.504;2023-08-08T02:27:13;9.00;;;3.43;;
10191;SDS011;17580;50.850;4.504;2023-08-08T02:29:40;6.37;;;2.60;;
10191;SDS011;17580;50.850;4.504;2023-08-08T02:32:08;7.20;;;2.60;;
10191;SDS011;17580;50.850;4.504;2023-08-08T02:34:36;5.87;;;2.60;;
10191;SDS011;17580;50.850;4.504;2023-08-08T02:37:04;10.93;;;3.90;;
10191;SDS011;17580;50.850;4.504;2023-08-08T02:39:31;7.97;;;3.50;;
10191;SDS011;17580;50.850;4.504;2023-08-08T02:41:59;13.00;;;3.63;;
10191;SDS011;17580;50.850;4.504;2023-08-08T02:44:26;5.80;;;3.30;;
10191;SDS011;17580;50.850;4.504;2023-08-08T02:46:53;5.83;;;2.67;;
10191;SDS011;17580;50.850;4.504;2023-08-08T02:49:20;3.47;;;2.90;;
10191;SDS011;17580;50.850;4.504;2023-08-08T02:51:49;4.17;;;3.07;;
10191;SDS011;17580;50.850;4.504;2023-08-08T02:54:16;6.30;;;3.27;;
10191;SDS011;17580;50.850;4.504;2023-08-08T02:56:44;10.70;;;3.17;;
10191;SDS011;17580;50.850;4.504;2023-08-08T02:59:11;5.23;;;3.53;;
10191;SDS011;17580;50.850;4.504;2023-08-08T03:01:38;8.60;;;3.00;;
10191;SDS011;17580;50.850;4.504;2023-08-08T03:04:06;12.33;;;3.03;;
10191;SDS011;17580;50.850;4.504;2023-08-08T03:06:33;8.50;;;3.57;;
10191;SDS011;17580;50.850;4.504;2023-08-08T03:09:02;5.43;;;3.00;;
10191;SDS011;17580;50.850;4.504;2023-08-08T03:11:30;6.43;;;3.63;;
10191;SDS011;17580;50.850;4.504;2023-08-08T03:13:57;7.57;;;3.00;;
10191;SDS011;17580;50.850;4.504;2023-08-08T03:16:24;11.13;;;3.13;;
10191;SDS011;17580;50.850;4.504;2023-08-08T03:18:51;6.77;;;3.43;;
10191;SDS011;17580;50.850;4.504;2023-08-08T03:21:19;6.43;;;3.40;;
10191;SDS011;17580;50.850;4.504;2023-08-08T03:23:46;6.80;;;3.53;;
10191;SDS011;17580;50.850;4.504;2023-08-08T03:26:14;5.13;;;3.13;;
10191;SDS011;17580;50.850;4.504;2023-08-08T03:28:42;8.37;;;3.27;;
10191;SDS011;17580;50.850;4.504;2023-08-08T03:31:09;9.43;;;3.53;;
10191;SDS011;17580;50.850;4.504;2023-08-08T03:33:36;9.37;;;3.10;;
10191;SDS011;17580;50.850;4.504;2023-08-08T03:36:03;3.77;;;2.53;;
10191;SDS011;17580;50.850;4.504;2023-08-08T03:38:31;11.90;;;4.17;;
10191;SDS011;17580;50.850;4.504;2023-08-08T03:40:58;5.93;;;3.53;;
10191;SDS011;17580;50.850;4.504;2023-08-08T03:43:27;7.00;;;3.50;;
10191;SDS011;17580;50.850;4.504;2023-08-08T03:45:54;8.87;;;4.10;;
10191;SDS011;17580;50.850;4.504;2023-08-08T03:48:21;6.83;;;3.77;;
10191;SDS011;17580;50.850;4.504;2023-08-08T03:50:48;8.27;;;4.37;;
10191;SDS011;17580;50.850;4.504;2023-08-08T03:53:15;10.77;;;3.50;;
10191;SDS011;17580;50.850;4.504;2023-08-08T03:55:43;7.13;;;4.17;;
10191;SDS011;17580;50.850;4.504;2023-08-08T03:58:10;13.03;;;4.33;;
10191;SDS011;17580;50.850;4.504;2023-08-08T04:00:38;5.13;;;3.83;;
10191;SDS011;17580;50.850;4.504;2023-08-08T04:03:11;8.03;;;4.30;;
10191;SDS011;17580;50.850;4.504;2023-08-08T04:05:39;6.37;;;3.37;;
10191;SDS011;17580;50.850;4.504;2023-08-08T04:08:06;9.00;;;4.53;;
10191;SDS011;17580;50.850;4.504;2023-08-08T04:10:33;4.20;;;3.60;;
10191;SDS011;17580;50.850;4.504;2023-08-08T04:13:00;8.33;;;3.67;;
10191;SDS011;17580;50.850;4.504;2023-08-08T04:15:28;8.63;;;3.60;;
10191;SDS011;17580;50.850;4.504;2023-08-08T04:17:56;9.97;;;4.33;;
10191;SDS011;17580;50.850;4.504;2023-08-08T04:20:24;7.37;;;4.17;;
10191;SDS011;17580;50.850;4.504;2023-08-08T04:22:51;10.67;;;3.87;;
10191;SDS011;17580;50.850;4.504;2023-08-08T04:25:18;10.97;;;4.33;;
10191;SDS011;17580;50.850;4.504;2023-08-08T04:27:46;8.40;;;4.10;;
10191;SDS011;17580;50.850;4.504;2023-08-08T04:30:13;16.27;;;4.90;;
10191;SDS011;17580;50.850;4.504;2023-08-08T04:32:40;10.20;;;4.40;;
10191;SDS011;17580;50.850;4.504;2023-08-08T04:35:09;7.77;;;3.70;;
10191;SDS011;17580;50.850;4.504;2023-08-08T04:37:36;6.83;;;3.57;;
10191;SDS011;17580;50.850;4.504;2023-08-08T04:40:04;6.80;;;3.63;;
10191;SDS011;17580;50.850;4.504;2023-08-08T04:42:33;11.40;;;4.20;;
10191;SDS011;17580;50.850;4.504;2023-08-08T04:45:00;11.50;;;3.50;;
10191;SDS011;17580;50.850;4.504;2023-08-08T04:47:27;9.93;;;3.40;;
10191;SDS011;17580;50.850;4.504;2023-08-08T04:49:55;7.10;;;3.40;;
10191;SDS011;17580;50.850;4.504;2023-08-08T04:52:23;8.40;;;3.90;;
10191;SDS011;17580;50.850;4.504;2023-08-08T04:54:50;8.27;;;3.53;;
10191;SDS011;17580;50.850;4.504;2023-08-08T04:57:18;5.80;;;3.50;;
10191;SDS011;17580;50.850;4.504;2023-08-08T04:59:45;9.00;;;3.97;;
10191;SDS011;17580;50.850;4.504;2023-08-08T05:02:12;8.87;;;3.67;;
10191;SDS011;17580;50.850;4.504;2023-08-08T05:04:39;10.67;;;3.73;;
10191;SDS011;17580;50.850;4.504;2023-08-08T05:07:06;13.00;;;3.87;;
10191;SDS011;17580;50.850;4.504;2023-08-08T05:09:35;7.07;;;3.23;;
10191;SDS011;17580;50.850;4.504;2023-08-08T05:12:03;8.13;;;3.27;;
10191;SDS011;17580;50.850;4.504;2023-08-08T05:14:30;8.63;;;3.67;;
10191;SDS011;17580;50.850;4.504;2023-08-08T05:16:57;9.67;;;3.00;;
10191;SDS011;17580;50.850;4.504;2023-08-08T05:19:24;12.97;;;3.50;;
10191;SDS011;17580;50.850;4.504;2023-08-08T05:21:51;4.80;;;2.77;;
10191;SDS011;17580;50.850;4.504;2023-08-08T05:24:19;12.20;;;3.63;;
10191;SDS011;17580;50.850;4.504;2023-08-08T05:26:47;9.77;;;3.63;;
10191;SDS011;17580;50.850;4.504;2023-08-08T05:29:14;9.27;;;4.03;;
10191;SDS011;17580;50.850;4.504;2023-08-08T05:31:42;8.77;;;3.17;;
10191;SDS011;17580;50.850;4.504;2023-08-08T05:34:09;7.53;;;3.37;;
10191;SDS011;17580;50.850;4.504;2023-08-08T05:36:36;6.73;;;3.27;;
10191;SDS011;17580;50.850;4.504;2023-08-08T05:39:03;6.53;;;2.80;;
10191;SDS011;17580;50.850;4.504;2023-08-08T05:41:32;10.43;;;4.13;;
10191;SDS011;17580;50.850;4.504;2023-08-08T05:44:00;7.77;;;3.23;;
10191;SDS011;17580;50.850;4.504;2023-08-08T05:46:28;7.10;;;3.83;;
10191;SDS011;17580;50.850;4.504;2023-08-08T05:48:55;8.07;;;3.07;;
10191;SDS011;17580;50.850;4.504;2023-08-08T05:51:22;9.57;;;4.10;;
10191;SDS011;17580;50.850;4.504;2023-08-08T05:53:49;7.80;;;3.53;;
10191;SDS011;17580;50.850;4.504;2023-08-08T05:56:17;8.63;;;3.70;;
10191;SDS011;17580;50.850;4.504;2023-08-08T05:58:44;8.13;;;3.87;;
10191;SDS011;17580;50.850;4.504;2023-08-08T06:01:12;8.97;;;3.07;;
10191;SDS011;17580;50.850;4.504;2023-08-08T06:03:40;5.63;;;3.40;;
10191;SDS011;17580;50.850;4.504;2023-08-08T06:06:07;8.63;;;3.97;;
10191;SDS011;17580;50.850;4.504;2023-08-08T06:08:34;7.93;;;3.57;;
10191;SDS011;17580;50.850;4.504;2023-08-08T06:11:01;11.97;;;5.17;;
10191;SDS011;17580;50.850;4.504;2023-08-08T06:13:29;8.03;;;3.03;;
10191;SDS011;17580;50.850;4.504;2023-08-08T06:15:56;8.20;;;4.00;;
10191;SDS011;17580;50.850;4.504;2023-08-08T06:18:25;8.03;;;3.43;;
10191;SDS011;17580;50.850;4.504;2023-08-08T06:20:52;12.90;;;3.60;;
10191;SDS011;17580;50.850;4.504;2023-08-08T06:23:19;8.47;;;3.67;;
10191;SDS011;17580;50.850;4.504;2023-08-08T06:25:47;8.93;;;3.60;;
10191;SDS011;17580;50.850;4.504;2023-08-08T06:28:14;12.70;;;3.80;;
10191;SDS011;17580;50.850;4.504;2023-08-08T06:30:41;15.43;;;3.87;;
10191;SDS011;17580;50.850;4.504;2023-08-08T06:33:08;9.87;;;4.13;;
10191;SDS011;17580;50.850;4.504;2023-08-08T06:35:37;8.37;;;3.47;;
10191;SDS011;17580;50.850;4.504;2023-08-08T06:38:04;6.50;;;2.70;;
10191;SDS011;17580;50.850;4.504;2023-08-08T06:40:31;14.37;;;3.40;;
10191;SDS011;17580;50.850;4.504;2023-08-08T06:42:58;11.93;;;3.50;;
10191;SDS011;17580;50.850;4.504;2023-08-08T06:45:26;8.73;;;3.43;;
10191;SDS011;17580;50.850;4.504;2023-08-08T06:47:53;8.93;;;3.07;;
10191;SDS011;17580;50.850;4.504;2023-08-08T06:50:20;7.93;;;3.27;;
10191;SDS011;17580;50.850;4.504;2023-08-08T06:52:51;6.43;;;2.67;;
10191;SDS011;17580;50.850;4.504;2023-08-08T06:55:18;9.00;;;3.30;;
10191;SDS011;17580;50.850;4.504;2023-08-08T06:57:45;7.37;;;2.97;;
10191;SDS011;17580;50.850;4.504;2023-08-08T07:00:13;5.57;;;2.33;;
10191;SDS011;17580;50.850;4.504;2023-08-08T07:02:41;10.23;;;3.37;;
10191;SDS011;17580;50.850;4.504;2023-08-08T07:05:08;5.90;;;2.80;;
10191;SDS011;17580;50.850;4.504;2023-08-08T07:07:36;7.47;;;2.83;;
10191;SDS011;17580;50.850;4.504;2023-08-08T07:10:05;4.87;;;2.77;;
10191;SDS011;17580;50.850;4.504;2023-08-08T07:12:32;8.63;;;3.03;;
10191;SDS011;17580;50.850;4.504;2023-08-08T07:14:59;10.57;;;3.27;;
10191;SDS011;17580;50.850;4.504;2023-08-08T07:17:27;4.03;;;2.10;;
10191;SDS011;17580;50.850;4.504;2023-08-08T07:19:54;7.20;;;2.60;;
10191;SDS011;17580;50.850;4.504;2023-08-08T07:22:23;5.27;;;2.60;;
10191;SDS011;17580;50.850;4.504;2023-08-08T07:24:50;6.77;;;2.83;;
10191;SDS011;17580;50.850;4.504;2023-08-08T07:27:19;9.30;;;3.53;;
10191;SDS011;17580;50.850;4.504;2023-08-08T07:29:47;5.30;;;2.90;;
10191;SDS011;17580;50.850;4.504;2023-08-08T07:32:14;8.20;;;3.07;;
10191;SDS011;17580;50.850;4.504;2023-08-08T07:34:41;9.10;;;2.87;;
10191;SDS011;17580;50.850;4.504;2023-08-08T07:37:08;5.70;;;2.93;;
10191;SDS011;17580;50.850;4.504;2023-08-08T07:39:36;7.53;;;3.27;;
10191;SDS011;17580;50.850;4.504;2023-08-08T07:42:03;5.97;;;2.90;;
10191;SDS011;17580;50.850;4.504;2023-08-08T07:44:32;8.70;;;3.43;;
10191;SDS011;17580;50.850;4.504;2023-08-08T07:47:03;6.47;;;3.37;;
10191;SDS011;17580;50.850;4.504;2023-08-08T07:49:30;5.53;;;3.10;;
10191;SDS011;17580;50.850;4.504;2023-08-08T07:51:57;5.73;;;3.27;;
10191;SDS011;17580;50.850;4.504;2023-08-08T07:54:25;10.30;;;3.97;;
10191;SDS011;17580;50.850;4.504;2023-08-08T07:56:52;10.23;;;3.53;;
10191;SDS011;17580;50.850;4.504;2023-08-08T07:59:19;4.70;;;2.90;;
10191;SDS011;17580;50.850;4.504;2023-08-08T08:01:47;8.07;;;3.60;;
10191;SDS011;17580;50.850;4.504;2023-08-08T08:04:15;7.27;;;3.57;;
10191;SDS011;17580;50.850;4.504;2023-08-08T08:06:42;5.57;;;2.90;;
10191;SDS011;17580;50.850;4.504;2023-08-08T08:09:09;5.80;;;3.23;;
10191;SDS011;17580;50.850;4.504;2023-08-08T08:11:36;5.03;;;2.80;;
10191;SDS011;17580;50.850;4.504;2023-08-08T08:14:03;5.67;;;2.53;;
10191;SDS011;17580;50.850;4.504;2023-08-08T08:16:31;24.37;;;4.20;;
10191;SDS011;17580;50.850;4.504;2023-08-08T08:19:00;7.60;;;3.10;;
10191;SDS011;17580;50.850;4.504;2023-08-08T08:21:27;7.07;;;3.37;;
10191;SDS011;17580;50.850;4.504;2023-08-08T08:23:54;8.17;;;3.47;;
10191;SDS011;17580;50.850;4.504;2023-08-08T08:26:22;5.63;;;3.00;;
10191;SDS011;17580;50.850;4.504;2023-08-08T08:28:49;4.87;;;3.13;;
10191;SDS011;17580;50.850;4.504;2023-08-08T08:31:16;7.37;;;4.30;;
10191;SDS011;17580;50.850;4.504;2023-08-08T08:33:44;8.43;;;3.20;;
10191;SDS011;17580;50.850;4.504;2023-08-08T08:36:13;7.33;;;2.97;;
10191;SDS011;17580;50.850;4.504;2023-08-08T08:38:40;6.80;;;3.10;;
10191;SDS011;17580;50.850;4.504;2023-08-08T08:41:07;6.17;;;3.07;;
10191;SDS011;17580;50.850;4.504;2023-08-08T08:43:35;7.27;;;3.10;;
10191;SDS011;17580;50.850;4.504;2023-08-08T08:46:03;7.13;;;3.17;;
10191;SDS011;17580;50.850;4.504;2023-08-08T08:48:30;4.57;;;2.70;;
10191;SDS011;17580;50.850;4.504;2023-08-08T08:50:58;4.00;;;2.10;;
10191;SDS011;17580;50.850;4.504;2023-08-08T08:53:26;5.87;;;2.47;;
10191;SDS011;17580;50.850;4.504;2023-08-08T08:55:54;4.90;;;2.53;;
10191;SDS011;17580;50.850;4.504;2023-08-08T08:58:22;6.47;;;2.93;;
10191;SDS011;17580;50.850;4.504;2023-08-08T09:00:51;4.10;;;2.17;;
10191;SDS011;17580;50.850;4.504;2023-08-08T09:03:18;5.00;;;2.67;;
10191;SDS011;17580;50.850;4.504;2023-08-08T09:05:45;8.60;;;3.10;;
10191;SDS011;17580;50.850;4.504;2023-08-08T09:08:13;5.40;;;2.50;;
10191;SDS011;17580;50.850;4.504;2023-08-08T09:10:42;5.90;;;2.43;;
10191;SDS011;17580;50.850;4.504;2023-08-08T09:13:09;4.73;;;2.67;;
10191;SDS011;17580;50.850;4.504;2023-08-08T09:15:37;6.53;;;2.47;;
10191;SDS011;17580;50.850;4.504;2023-08-08T09:18:04;4.20;;;2.40;;
10191;SDS011;17580;50.850;4.504;2023-08-08T09:20:34;6.20;;;2.70;;
10191;SDS011;17580;50.850;4.504;2023-08-08T09:23:01;7.20;;;2.80;;
10191;SDS011;17580;50.850;4.504;2023-08-08T09:25:28;5.30;;;3.03;;
10191;SDS011;17580;50.850;4.504;2023-08-08T09:27:57;2.97;;;2.13;;
10191;SDS011;17580;50.850;4.504;2023-08-08T09:30:25;5.13;;;2.97;;
10191;SDS011;17580;50.850;4.504;2023-08-08T09:32:52;3.63;;;2.37;;
10191;SDS011;17580;50.850;4.504;2023-08-08T09:35:22;6.40;;;2.40;;
10191;SDS011;17580;50.850;4.504;2023-08-08T09:37:52;4.77;;;2.43;;
10191;SDS011;17580;50.850;4.504;2023-08-08T09:40:19;7.00;;;2.67;;
10191;SDS011;17580;50.850;4.504;2023-08-08T09:42:46;5.57;;;2.40;;
10191;SDS011;17580;50.850;4.504;2023-08-08T09:45:15;4.17;;;2.50;;
10191;SDS011;17580;50.850;4.504;2023-08-08T09:47:43;4.13;;;2.67;;
10191;SDS011;17580;50.850;4.504;2023-08-08T09:50:10;6.90;;;2.30;;
10191;SDS011;17580;50.850;4.504;2023-08-08T09:52:38;3.97;;;2.60;;
10191;SDS011;17580;50.850;4.504;2023-08-08T09:55:05;8.33;;;2.63;;
10191;SDS011;17580;50.850;4.504;2023-08-08T09:57:32;5.53;;;2.60;;
10191;SDS011;17580;50.850;4.504;2023-08-08T10:00:00;5.33;;;2.30;;
10191;SDS011;17580;50.850;4.504;2023-08-08T10:02:32;3.27;;;1.93;;
10191;SDS011;17580;50.850;4.504;2023-08-08T10:04:59;3.87;;;2.07;;
10191;SDS011;17580;50.850;4.504;2023-08-08T10:07:26;4.67;;;2.00;;
10191;SDS011;17580;50.850;4.504;2023-08-08T10:09:54;2.87;;;2.10;;
10191;SDS011;17580;50.850;4.504;2023-08-08T10:12:21;3.50;;;2.00;;
10191;SDS011;17580;50.850;4.504;2023-08-08T10:14:49;5.40;;;2.30;;
10191;SDS011;17580;50.850;4.504;2023-08-08T10:17:17;1.93;;;1.70;;
10191;SDS011;17580;50.850;4.504;2023-08-08T10:20:01;3.23;;;2.20;;
10191;SDS011;17580;50.850;4.504;2023-08-08T10:22:34;3.87;;;1.80;;
10191;SDS011;17580;50.850;4.504;2023-08-08T10:25:03;4.00;;;2.30;;
10191;SDS011;17580;50.850;4.504;2023-08-08T10:27:31;2.10;;;1.87;;
10191;SDS011;17580;50.850;4.504;2023-08-08T10:30:03;2.53;;;1.97;;
10191;SDS011;17580;50.850;4.504;2023-08-08T10:32:37;5.80;;;1.83;;
10191;SDS011;17580;50.850;4.504;2023-08-08T10:35:07;3.70;;;2.70;;
10191;SDS011;17580;50.850;4.504;2023-08-08T10:37:35;2.37;;;1.97;;
10191;SDS011;17580;50.850;4.504;2023-08-08T10:40:03;2.00;;;1.53;;
10191;SDS011;17580;50.850;4.504;2023-08-08T10:42:32;4.77;;;1.80;;
10191;SDS011;17580;50.850;4.504;2023-08-08T10:45:00;2.67;;;1.70;;
10191;SDS011;17580;50.850;4.504;2023-08-08T10:47:30;3.17;;;1.50;;
10191;SDS011;17580;50.850;4.504;2023-08-08T10:50:03;4.70;;;1.80;;
10191;SDS011;17580;50.850;4.504;2023-08-08T10:52:33;5.07;;;2.07;;
10191;SDS011;17580;50.850;4.504;2023-08-08T10:55:01;1.90;;;1.60;;
10191;SDS011;17580;50.850;4.504;2023-08-08T10:57:28;2.90;;;2.00;;
10191;SDS011;17580;50.850;4.504;2023-08-08T11:02:39;2.33;;;1.60;;
10191;SDS011;17580;50.850;4.504;2023-08-08T11:05:07;3.20;;;2.00;;
10191;SDS011;17580;50.850;4.504;2023-08-08T11:07:39;2.57;;;1.67;;
10191;SDS011;17580;50.850;4.504;2023-08-08T11:10:06;1.50;;;1.40;;
10191;SDS011;17580;50.850;4.504;2023-08-08T11:12:34;2.43;;;2.10;;
10191;SDS011;17580;50.850;4.504;2023-08-08T11:15:02;1.90;;;1.70;;
10191;SDS011;17580;50.850;4.504;2023-08-08T11:17:31;1.87;;;1.50;;
10191;SDS011;17580;50.850;4.504;2023-08-08T11:19:58;2.30;;;2.10;;
10191;SDS011;17580;50.850;4.504;2023-08-08T11:22:26;4.00;;;1.70;;
10191;SDS011;17580;50.850;4.504;2023-08-08T11:24:56;1.40;;;1.30;;
10191;SDS011;17580;50.850;4.504;2023-08-08T11:27:28;1.93;;;1.80;;
10191;SDS011;17580;50.850;4.504;2023-08-08T11:29:56;3.83;;;1.50;;
10191;SDS011;17580;50.850;4.504;2023-08-08T11:32:24;2.37;;;1.70;;
10191;SDS011;17580;50.850;4.504;2023-08-08T11:34:52;2.47;;;1.90;;
10191;SDS011;17580;50.850;4.504;2023-08-08T11:37:19;1.63;;;1.53;;
10191;SDS011;17580;50.850;4.504;2023-08-08T11:39:46;2.20;;;1.60;;
10191;SDS011;17580;50.850;4.504;2023-08-08T11:42:15;3.73;;;1.70;;
10191;SDS011;17580;50.850;4.504;2023-08-08T11:44:43;1.60;;;1.50;;
10191;SDS011;17580;50.850;4.504;2023-08-08T11:47:10;3.47;;;2.03;;
10191;SDS011;17580;50.850;4.504;2023-08-08T11:49:41;1.43;;;1.30;;
10191;SDS011;17580;50.850;4.504;2023-08-08T11:52:08;2.17;;;1.40;;
10191;SDS011;17580;50.850;4.504;2023-08-08T11:54:36;2.30;;;1.30;;
10191;SDS011;17580;50.850;4.504;2023-08-08T11:57:04;2.20;;;1.43;;
10191;SDS011;17580;50.850;4.504;2023-08-08T11:59:32;1.33;;;1.20;;
10191;SDS011;17580;50.850;4.504;2023-08-08T12:02:00;2.17;;;1.73;;
10191;SDS011;17580;50.850;4.504;2023-08-08T12:04:27;2.73;;;1.40;;
10191;SDS011;17580;50.850;4.504;2023-08-08T12:07:00;1.53;;;1.47;;
10191;SDS011;17580;50.850;4.504;2023-08-08T12:09:28;1.97;;;1.30;;
10191;SDS011;17580;50.850;4.504;2023-08-08T12:11:58;2.27;;;1.63;;
10191;SDS011;17580;50.850;4.504;2023-08-08T12:14:25;1.50;;;1.40;;
10191;SDS011;17580;50.850;4.504;2023-08-08T12:16:54;3.50;;;1.90;;
10191;SDS011;17580;50.850;4.504;2023-08-08T12:19:22;1.67;;;1.57;;
10191;SDS011;17580;50.850;4.504;2023-08-08T12:21:50;1.80;;;1.63;;
10191;SDS011;17580;50.850;4.504;2023-08-08T12:24:17;3.73;;;1.80;;
10191;SDS011;17580;50.850;4.504;2023-08-08T12:26:44;1.57;;;1.47;;
10191;SDS011;17580;50.850;4.504;2023-08-08T12:29:11;1.80;;;1.70;;
10191;SDS011;17580;50.850;4.504;2023-08-08T12:31:39;1.83;;;1.73;;
10191;SDS011;17580;50.850;4.504;2023-08-08T12:34:08;2.30;;;1.70;;
10191;SDS011;17580;50.850;4.504;2023-08-08T12:36:35;2.40;;;1.70;;
10191;SDS011;17580;50.850;4.504;2023-08-08T12:39:04;1.80;;;1.70;;
10191;SDS011;17580;50.850;4.504;2023-08-08T12:41:32;1.53;;;1.40;;
10191;SDS011;17580;50.850;4.504;2023-08-08T12:43:59;1.50;;;1.40;;
10191;SDS011;17580;50.850;4.504;2023-08-08T12:46:26;2.00;;;1.87;;
10191;SDS011;17580;50.850;4.504;2023-08-08T12:48:54;1.93;;;1.63;;
10191;SDS011;17580;50.850;4.504;2023-08-08T12:51:22;2.03;;;1.40;;
10191;SDS011;17580;50.850;4.504;2023-08-08T12:53:49;1.47;;;1.40;;
10191;SDS011;17580;50.850;4.504;2023-08-08T12:56:17;2.97;;;1.90;;
10191;SDS011;17580;50.850;4.504;2023-08-08T12:58:44;1.47;;;1.37;;
10191;SDS011;17580;50.850;4.504;2023-08-08T13:01:11;3.77;;;1.90;;
10191;SDS011;17580;50.850;4.504;2023-08-08T13:03:38;2.50;;;1.50;;
10191;SDS011;17580;50.850;4.504;2023-08-08T13:06:06;1.60;;;1.50;;
10191;SDS011;17580;50.850;4.504;2023-08-08T13:08:35;2.10;;;1.40;;
10191;SDS011;17580;50.850;4.504;2023-08-08T13:11:02;1.70;;;1.50;;
10191;SDS011;17580;50.850;4.504;2023-08-08T13:13:30;3.23;;;2.03;;
10191;SDS011;17580;50.850;4.504;2023-08-08T13:15:57;2.10;;;1.47;;
10191;SDS011;17580;50.850;4.504;2023-08-08T13:18:24;2.80;;;1.40;;
10191;SDS011;17580;50.850;4.504;2023-08-08T13:20:52;4.30;;;1.40;;
10191;SDS011;17580;50.850;4.504;2023-08-08T13:23:19;1.50;;;1.40;;
10191;SDS011;17580;50.850;4.504;2023-08-08T13:25:47;2.80;;;1.80;;
10191;SDS011;17580;50.850;4.504;2023-08-08T13:28:15;1.67;;;1.57;;
10191;SDS011;17580;50.850;4.504;2023-08-08T13:30:42;2.67;;;1.57;;
10191;SDS011;17580;50.850;4.504;2023-08-08T13:33:09;2.30;;;1.70;;
10191;SDS011;17580;50.850;4.504;2023-08-08T13:35:36;3.60;;;1.57;;
10191;SDS011;17580;50.850;4.504;2023-08-08T13:38:04;1.47;;;1.37;;
10191;SDS011;17580;50.850;4.504;2023-08-08T13:40:32;1.83;;;1.73;;
10191;SDS011;17580;50.850;4.504;2023-08-08T13:43:01;1.63;;;1.60;;
10191;SDS011;17580;50.850;4.504;2023-08-08T13:45:28;2.53;;;1.77;;
10191;SDS011;17580;50.850;4.504;2023-08-08T13:47:56;1.83;;;1.73;;
10191;SDS011;17580;50.850;4.504;2023-08-08T13:50:23;2.87;;;1.60;;
10191;SDS011;17580;50.850;4.504;2023-08-08T13:52:50;1.57;;;1.47;;
10191;SDS011;17580;50.850;4.504;2023-08-08T13:55:18;1.27;;;1.27;;
10191;SDS011;17580;50.850;4.504;2023-08-08T13:57:45;1.60;;;1.30;;
10191;SDS011;17580;50.850;4.504;2023-08-08T14:00:15;2.00;;;1.67;;
10191;SDS011;17580;50.850;4.504;2023-08-08T14:02:42;2.47;;;1.60;;
10191;SDS011;17580;50.850;4.504;2023-08-08T14:05:09;1.30;;;1.30;;
10191;SDS011;17580;50.850;4.504;2023-08-08T14:07:37;1.50;;;1.40;;
10191;SDS011;17580;50.850;4.504;2023-08-08T14:10:05;1.40;;;1.40;;
10191;SDS011;17580;50.850;4.504;2023-08-08T14:12:34;1.47;;;1.27;;
10191;SDS011;17580;50.850;4.504;2023-08-08T14:15:01;1.70;;;1.53;;
10191;SDS011;17580;50.850;4.504;2023-08-08T14:17:30;1.50;;;1.40;;
10191;SDS011;17580;50.850;4.504;2023-08-08T14:19:57;1.10;;;1.10;;
10191;SDS011;17580;50.850;4.504;2023-08-08T14:22:25;1.57;;;1.40;;
10191;SDS011;17580;50.850;4.504;2023-08-08T14:24:52;1.60;;;1.50;;
10191;SDS011;17580;50.850;4.504;2023-08-08T14:27:19;3.20;;;1.37;;
10191;SDS011;17580;50.850;4.504;2023-08-08T14:29:46;4.10;;;1.50;;
10191;SDS011;17580;50.850;4.504;2023-08-08T14:32:14;4.20;;;1.60;;
10191;SDS011;17580;50.850;4.504;2023-08-08T14:34:43;2.90;;;1.57;;
10191;SDS011;17580;50.850;4.504;2023-08-08T14:37:10;2.97;;;1.40;;
10191;SDS011;17580;50.850;4.504;2023-08-08T14:39:38;1.90;;;1.50;;
10191;SDS011;17580;50.850;4.504;2023-08-08T14:42:05;1.90;;;1.30;;
10191;SDS011;17580;50.850;4.504;2023-08-08T14:44:32;1.30;;;1.20;;
10191;SDS011;17580;50.850;4.504;2023-08-08T14:46:59;1.80;;;1.50;;
10191;SDS011;17580;50.850;4.504;2023-08-08T14:49:27;1.30;;;1.20;;
10191;SDS011;17580;50.850;4.504;2023-08-08T14:51:55;1.80;;;1.57;;